Time;durP1;ratioP1;P1;durP2;ratioP2;P2;SDS_P1;SDS_P2;PMS_P1;PMS_P2;Temp;Humidity;BMP_temperature;BMP_pressure;BME280_temperature;BME280_humidity;BME280_pressure;Samples;Min_cycle;Max_cycle;Signal;HPM_P1;HPM_P2
2022/09/30 00:04:30;;;;;;;10.57;6.37;;;8.10;99.90;;;;;;10385645;28;20236;-74
2022/09/30 00:09:31;;;;;;;9.73;6.30;;;8.10;99.90;;;;;;10389845;28;20221;-75
2022/09/30 00:14:32;;;;;;;9.07;5.80;;;8.20;99.90;;;;;;10398906;28;20210;-74
2022/09/30 00:19:32;;;;;;;6.67;5.43;;;8.40;99.90;;;;;;10393792;28;20313;-74
2022/09/30 00:24:33;;;;;;;7.70;5.47;;;8.50;99.90;;;;;;10391756;28;20215;-75
2022/09/30 00:29:33;;;;;;;6.97;5.27;;;8.60;99.90;;;;;;10390938;28;20368;-74
2022/09/30 00:34:34;;;;;;;8.97;6.07;;;8.70;99.90;;;;;;10388817;28;20264;-74
2022/09/30 00:39:36;;;;;;;7.77;5.20;;;8.80;99.90;;;;;;10391071;28;20587;-75
2022/09/30 00:44:51;;;;;;;6.27;4.97;;;8.90;99.90;;;;;;10390946;28;20591;-75
2022/09/30 00:49:52;;;;;;;6.50;4.90;;;8.90;99.90;;;;;;10397690;28;20233;-74
2022/09/30 00:54:57;;;;;;;7.83;5.13;;;9.00;99.90;;;;;;10384979;28;20216;-74
2022/09/30 00:59:57;;;;;;;10.27;5.63;;;9.10;99.90;;;;;;10388934;28;20230;-74
2022/09/30 01:05:00;;;;;;;7.30;5.20;;;9.10;99.90;;;;;;10389260;28;20227;-74
2022/09/30 01:10:00;;;;;;;5.83;4.53;;;9.10;99.90;;;;;;10387949;28;20220;-74
2022/09/30 01:15:01;;;;;;;7.30;5.30;;;9.00;99.90;;;;;;10389704;28;20278;-74
2022/09/30 01:20:20;;;;;;;10.93;5.20;;;9.00;99.90;;;;;;10386758;28;20323;-75
2022/09/30 01:26:05;;;;;;;6.00;4.53;;;8.90;99.90;;;;;;10388545;28;20592;-75
2022/09/30 01:31:47;;;;;;;6.63;5.10;;;8.80;99.90;;;;;;10363829;28;20250;-75
2022/09/30 01:37:12;;;;;;;11.07;4.70;;;8.70;99.90;;;;;;10395114;28;20234;-73
2022/09/30 01:42:27;;;;;;;6.47;5.03;;;8.60;99.90;;;;;;10382944;28;20253;-73
2022/09/30 01:47:49;;;;;;;10.03;5.03;;;8.70;99.90;;;;;;10390972;28;20661;-74
2022/09/30 01:53:28;;;;;;;5.87;4.60;;;8.70;99.90;;;;;;10395860;28;20225;-75
2022/09/30 01:58:43;;;;;;;8.27;4.30;;;8.80;99.90;;;;;;10388981;28;20262;-75
2022/09/30 02:03:52;;;;;;;6.70;4.60;;;8.80;99.90;;;;;;10408702;28;20322;-73
2022/09/30 02:09:03;;;;;;;5.17;4.20;;;8.80;99.90;;;;;;10379619;28;20237;-74
2022/09/30 02:14:09;;;;;;;7.77;5.37;;;8.80;99.90;;;;;;10392802;28;20231;-73
2022/09/30 02:19:27;;;;;;;9.13;5.97;;;8.80;99.90;;;;;;10392618;28;20251;-75
2022/09/30 02:24:37;;;;;;;8.70;5.53;;;8.70;99.90;;;;;;10401719;28;20287;-74
2022/09/30 02:29:44;;;;;;;5.87;5.00;;;8.70;99.90;;;;;;10394871;28;20227;-73
2022/09/30 02:34:50;;;;;;;9.23;5.27;;;8.60;99.90;;;;;;10387455;28;20687;-73
2022/09/30 02:40:10;;;;;;;6.57;4.80;;;8.60;99.90;;;;;;10398400;28;20251;-72
2022/09/30 02:45:15;;;;;;;9.23;4.63;;;8.60;99.90;;;;;;10393832;28;20258;-73
2022/09/30 02:50:25;;;;;;;7.80;4.20;;;8.60;99.90;;;;;;10389127;28;20212;-73
2022/09/30 02:55:33;;;;;;;6.37;4.20;;;8.40;99.90;;;;;;10392220;28;20217;-74
2022/09/30 03:00:34;;;;;;;8.13;4.80;;;8.30;99.90;;;;;;10395468;28;20244;-75
2022/09/30 03:05:37;;;;;;;5.13;4.47;;;8.10;99.90;;;;;;10391068;28;20293;-74
2022/09/30 03:10:38;;;;;;;4.77;4.27;;;8.00;99.90;;;;;;10385640;28;20346;-73
2022/09/30 03:15:51;;;;;;;8.70;4.97;;;7.80;99.90;;;;;;10389630;28;20266;-73
2022/09/30 03:21:08;;;;;;;7.73;4.53;;;7.70;99.90;;;;;;10384459;28;20278;-73
2022/09/30 03:26:08;;;;;;;8.27;5.10;;;7.50;99.90;;;;;;10391765;28;20219;-74
2022/09/30 03:31:31;;;;;;;7.20;4.70;;;7.40;99.90;;;;;;10388467;28;20238;-73
2022/09/30 03:36:43;;;;;;;12.17;5.23;;;7.40;99.90;;;;;;10392398;28;21051;-73
2022/09/30 03:41:53;;;;;;;6.43;4.77;;;7.30;99.90;;;;;;10390742;28;20688;-74
2022/09/30 03:47:00;;;;;;;5.90;4.80;;;7.20;99.90;;;;;;10383267;28;20300;-74
2022/09/30 03:52:09;;;;;;;8.07;4.90;;;7.10;99.90;;;;;;10396942;28;20304;-75
2022/09/30 03:57:09;;;;;;;7.30;4.87;;;7.10;99.90;;;;;;10392439;28;20247;-72
2022/09/30 04:02:12;;;;;;;9.90;5.10;;;7.00;99.90;;;;;;10385924;28;20254;-74
2022/09/30 04:07:12;;;;;;;6.83;5.60;;;6.90;99.90;;;;;;10403402;28;20251;-73
2022/09/30 04:12:13;;;;;;;9.07;4.70;;;6.90;99.90;;;;;;10401677;28;20315;-74
2022/09/30 04:17:14;;;;;;;8.50;4.83;;;6.90;99.90;;;;;;10409057;28;20217;-74
2022/09/30 04:22:14;;;;;;;6.70;4.47;;;6.80;99.90;;;;;;10401859;28;20295;-74
2022/09/30 04:27:15;;;;;;;5.27;4.30;;;6.70;99.90;;;;;;10392935;28;20244;-74
2022/09/30 04:32:15;;;;;;;7.60;5.00;;;6.70;99.90;;;;;;10389526;28;20221;-74
2022/09/30 04:37:16;;;;;;;4.80;4.30;;;6.70;99.90;;;;;;10392119;28;20639;-73
2022/09/30 04:42:17;;;;;;;5.07;4.40;;;6.70;99.90;;;;;;10396993;28;20929;-68
2022/09/30 04:47:17;;;;;;;7.57;4.67;;;6.70;99.90;;;;;;10386369;28;20224;-68
2022/09/30 04:52:18;;;;;;;6.67;4.67;;;6.70;99.90;;;;;;10385806;28;20308;-67
2022/09/30 04:57:19;;;;;;;5.13;3.63;;;6.70;99.90;;;;;;10385290;28;20224;-66
2022/09/30 05:02:19;;;;;;;5.73;4.53;;;6.70;99.90;;;;;;10384712;28;20240;-68
2022/09/30 05:07:21;;;;;;;7.23;4.60;;;6.60;99.90;;;;;;10386114;28;20232;-65
2022/09/30 05:12:22;;;;;;;4.67;4.17;;;6.50;99.90;;;;;;10383627;28;20233;-67
2022/09/30 05:17:23;;;;;;;9.17;4.10;;;6.50;99.90;;;;;;10385606;28;20307;-71
2022/09/30 05:22:24;;;;;;;5.33;4.00;;;6.40;99.90;;;;;;10383642;28;20263;-73
2022/09/30 05:27:24;;;;;;;6.17;4.30;;;6.30;99.90;;;;;;10387018;28;20228;-73
2022/09/30 05:32:26;;;;;;;5.83;3.83;;;6.30;99.90;;;;;;10381878;28;20231;-73
2022/09/30 05:37:26;;;;;;;8.20;3.83;;;6.20;99.90;;;;;;10383256;28;20677;-72
2022/09/30 05:42:27;;;;;;;9.43;3.87;;;6.10;99.90;;;;;;10388677;28;20331;-69
2022/09/30 05:47:27;;;;;;;10.03;3.83;;;6.10;99.90;;;;;;10393395;28;20224;-71
2022/09/30 05:52:28;;;;;;;7.93;3.73;;;6.10;99.90;;;;;;10390759;28;20221;-72
2022/09/30 05:57:29;;;;;;;4.20;3.23;;;6.20;99.90;;;;;;10393343;28;20233;-71
2022/09/30 06:02:29;;;;;;;4.40;3.33;;;6.30;99.90;;;;;;10399742;28;20717;-71
2022/09/30 06:07:32;;;;;;;5.80;4.03;;;6.40;99.90;;;;;;10395943;28;20312;-70
2022/09/30 06:12:34;;;;;;;4.20;3.50;;;6.60;99.90;;;;;;10396800;28;20632;-71
2022/09/30 06:17:34;;;;;;;4.43;3.50;;;6.70;99.90;;;;;;10392736;28;20749;-71
2022/09/30 06:22:35;;;;;;;4.23;3.67;;;6.70;99.90;;;;;;10408230;28;20228;-71
2022/09/30 06:27:37;;;;;;;3.93;3.63;;;6.80;99.90;;;;;;10388262;28;20926;-71
2022/09/30 06:32:37;;;;;;;4.93;3.40;;;7.00;99.90;;;;;;10392484;28;20232;-72
2022/09/30 06:37:38;;;;;;;5.90;3.33;;;7.10;99.90;;;;;;10399557;28;20803;-72
2022/09/30 06:42:39;;;;;;;3.87;2.93;;;7.70;99.90;;;;;;10411609;28;20235;-75
2022/09/30 06:47:40;;;;;;;4.67;3.20;;;8.50;99.90;;;;;;10391173;28;20228;-72
2022/09/30 06:52:41;;;;;;;4.70;3.50;;;8.90;99.90;;;;;;10392012;28;20327;-73
2022/09/30 06:57:42;;;;;;;3.97;3.40;;;9.00;99.90;;;;;;10391793;28;20252;-72
2022/09/30 07:02:43;;;;;;;4.17;3.80;;;8.70;99.90;;;;;;10385398;28;20239;-75
2022/09/30 07:07:43;;;;;;;6.70;3.90;;;8.60;99.90;;;;;;10413113;28;20580;-76
2022/09/30 07:12:50;;;;;;;3.50;3.20;;;8.60;99.90;;;;;;10410930;28;20225;-74
2022/09/30 07:17:53;;;;;;;5.37;3.60;;;8.80;99.90;;;;;;10411820;28;20227;-73
2022/09/30 07:22:57;;;;;;;7.07;3.50;;;9.40;99.90;;;;;;10392478;28;20228;-73
2022/09/30 07:27:58;;;;;;;5.40;3.10;;;10.80;99.90;;;;;;10386664;28;20301;-73
2022/09/30 07:32:58;;;;;;;7.23;3.10;;;13.50;99.90;;;;;;10392154;28;20311;-74
2022/09/30 07:38:00;;;;;;;6.67;2.73;;;16.30;99.90;;;;;;10386149;28;20599;-74
2022/09/30 07:43:02;;;;;;;4.77;2.87;;;18.80;99.90;;;;;;10390888;28;20332;-74
2022/09/30 07:48:10;;;;;;;6.13;2.43;;;21.30;93.40;;;;;;10389587;28;20223;-74
2022/09/30 07:53:11;;;;;;;5.83;2.77;;;23.90;77.80;;;;;;10388630;28;20241;-75
2022/09/30 07:58:11;;;;;;;3.60;2.80;;;25.80;60.80;;;;;;10384288;28;20483;-75
2022/09/30 08:03:12;;;;;;;4.10;2.90;;;26.40;56.40;;;;;;10395629;28;20613;-73
2022/09/30 08:08:13;;;;;;;6.23;3.10;;;26.50;53.70;;;;;;10385379;28;20222;-74
2022/09/30 08:13:15;;;;;;;5.10;3.00;;;27.80;49.60;;;;;;10396838;28;20217;-73
2022/09/30 08:18:16;;;;;;;6.30;3.50;;;28.80;48.10;;;;;;10391863;28;20217;-73
2022/09/30 08:23:16;;;;;;;5.43;2.90;;;30.50;45.10;;;;;;10400790;28;20221;-73
2022/09/30 08:28:17;;;;;;;8.03;3.10;;;31.10;41.50;;;;;;10385799;28;20287;-75
2022/09/30 08:33:18;;;;;;;6.60;3.07;;;31.40;41.40;;;;;;10384096;28;20652;-75
2022/09/30 08:38:18;;;;;;;5.80;2.80;;;31.70;40.20;;;;;;10384930;28;20224;-73
2022/09/30 08:43:49;;;;;;;5.47;3.10;;;32.70;39.40;;;;;;10395294;28;20213;-74
2022/09/30 08:49:07;;;;;;;4.73;2.70;;;33.50;37.50;;;;;;10396935;28;20228;-73
2022/09/30 08:54:14;;;;;;;5.77;3.50;;;33.90;35.90;;;;;;10384863;28;20844;-74
2022/09/30 08:59:25;;;;;;;9.37;3.50;;;31.40;36.80;;;;;;10386715;28;20214;-73
2022/09/30 09:04:26;;;;;;;7.37;3.70;;;31.30;38.50;;;;;;10385854;28;20252;-75
2022/09/30 09:09:47;;;;;;;4.77;3.40;;;31.30;38.00;;;;;;10384033;28;20305;-74
2022/09/30 09:14:54;;;;;;;7.67;4.20;;;33.50;36.80;;;;;;10390983;28;20269;-74
2022/09/30 09:20:14;;;;;;;6.03;3.83;;;34.40;34.00;;;;;;10390977;28;20251;-75
2022/09/30 09:25:18;;;;;;;6.10;3.20;;;35.00;33.80;;;;;;10393967;28;20255;-73
2022/09/30 09:30:21;;;;;;;6.00;3.97;;;34.00;33.80;;;;;;10390897;28;20209;-73
2022/09/30 09:35:48;;;;;;;10.53;4.47;;;33.70;33.80;;;;;;10390790;28;20176;-74
2022/09/30 09:41:14;;;;;;;7.83;3.30;;;34.00;33.30;;;;;;10394786;28;20909;-75
2022/09/30 09:46:17;;;;;;;6.77;3.60;;;34.70;33.30;;;;;;10390927;28;20443;-72
2022/09/30 09:51:41;;;;;;;9.43;3.63;;;35.60;32.50;;;;;;10395290;28;20229;-73
2022/09/30 09:56:45;;;;;;;6.33;3.27;;;36.10;32.10;;;;;;10380713;28;20734;-73
2022/09/30 10:01:49;;;;;;;4.97;3.17;;;34.70;33.20;;;;;;10397248;28;20225;-71
2022/09/30 10:06:58;;;;;;;4.27;3.27;;;34.90;33.50;;;;;;10414756;28;20336;-70
2022/09/30 10:12:05;;;;;;;3.77;2.60;;;35.40;31.40;;;;;;10418408;28;20235;-71
2022/09/30 10:17:30;;;;;;;4.93;3.27;;;36.70;31.60;;;;;;10422018;28;20701;-70
2022/09/30 10:22:34;;;;;;;4.67;2.70;;;36.90;30.70;;;;;;10419182;28;20220;-74
2022/09/30 10:27:35;;;;;;;5.67;2.70;;;37.20;31.10;;;;;;10401299;28;20569;-73
2022/09/30 10:32:35;;;;;;;7.30;2.90;;;37.50;30.00;;;;;;10392999;28;20233;-72
2022/09/30 10:37:36;;;;;;;4.03;2.73;;;37.20;29.80;;;;;;10395958;28;20220;-73
2022/09/30 10:42:40;;;;;;;5.63;2.50;;;37.00;30.60;;;;;;10435195;28;20584;-75
2022/09/30 10:47:46;;;;;;;8.10;3.23;;;37.30;30.60;;;;;;10443994;28;20632;-73
2022/09/30 10:52:58;;;;;;;5.63;3.20;;;38.10;29.30;;;;;;10430368;28;20232;-73
2022/09/30 10:58:20;;;;;;;3.00;2.67;;;38.50;29.40;;;;;;10436784;28;20825;-73
2022/09/30 11:03:27;;;;;;;10.60;3.17;;;38.60;29.20;;;;;;10414718;28;20303;-71
2022/09/30 11:09:04;;;;;;;3.67;2.33;;;38.70;29.60;;;;;;10439320;28;20237;-72
2022/09/30 11:14:28;;;;;;;3.73;2.50;;;38.20;28.90;;;;;;10357766;28;20347;-75
2022/09/30 11:19:39;;;;;;;5.73;3.40;;;33.20;33.10;;;;;;10392017;28;20231;-72
2022/09/30 11:24:45;;;;;;;7.30;3.00;;;28.40;40.10;;;;;;10394037;28;20212;-74
2022/09/30 11:29:46;;;;;;;4.53;3.00;;;25.40;46.80;;;;;;10406152;28;20267;-70
2022/09/30 11:35:13;;;;;;;6.47;3.33;;;23.60;49.80;;;;;;10381874;28;20661;-71
2022/09/30 11:40:42;;;;;;;4.90;2.43;;;22.30;53.90;;;;;;10392265;28;20216;-72
2022/09/30 11:46:12;;;;;;;7.27;2.20;;;21.60;55.10;;;;;;10389500;28;20228;-72
2022/09/30 11:51:27;;;;;;;7.83;2.70;;;21.10;54.70;;;;;;10396085;28;20817;-71
2022/09/30 11:56:33;;;;;;;4.63;1.90;;;20.50;55.90;;;;;;10390772;28;20319;-74
2022/09/30 12:01:40;;;;;;;6.47;2.50;;;20.20;56.60;;;;;;10390444;28;20321;-73
2022/09/30 12:06:52;;;;;;;6.57;2.53;;;19.70;58.50;;;;;;10401244;28;20638;-74
2022/09/30 12:12:09;;;;;;;4.87;2.17;;;19.50;59.70;;;;;;10387984;28;20313;-73
2022/09/30 12:17:31;;;;;;;7.00;2.40;;;19.40;60.90;;;;;;10387158;28;20219;-74
2022/09/30 12:22:38;;;;;;;5.23;2.60;;;19.20;58.30;;;;;;10399872;28;20218;-73
2022/09/30 12:27:48;;;;;;;11.87;3.10;;;19.00;61.70;;;;;;10388335;28;20224;-73
2022/09/30 12:33:34;;;;;;;4.50;2.10;;;19.00;61.10;;;;;;10394510;28;20317;-74
2022/09/30 12:39:03;;;;;;;5.20;1.70;;;18.90;59.70;;;;;;10357172;28;20227;-74
2022/09/30 12:44:36;;;;;;;2.80;1.50;;;18.80;59.80;;;;;;10392810;28;20281;-74
2022/09/30 12:49:40;;;;;;;4.63;2.27;;;18.80;59.60;;;;;;10391635;28;20223;-74
2022/09/30 12:54:49;;;;;;;5.27;2.40;;;18.70;60.40;;;;;;10396075;28;20797;-73
2022/09/30 12:59:59;;;;;;;3.07;2.27;;;18.60;62.00;;;;;;10389306;28;20218;-74
2022/09/30 13:05:31;;;;;;;3.30;1.73;;;18.50;61.50;;;;;;10396885;28;20309;-73
2022/09/30 13:10:37;;;;;;;5.03;1.80;;;18.50;62.60;;;;;;10402767;28;20580;-73
2022/09/30 13:15:49;;;;;;;2.83;1.77;;;18.50;60.80;;;;;;10396020;28;20230;-71
2022/09/30 13:21:05;;;;;;;2.33;1.60;;;18.50;63.30;;;;;;10393263;28;20250;-72
2022/09/30 13:26:33;;;;;;;5.63;4.40;;;18.50;62.00;;;;;;10400971;28;20223;-73
2022/09/30 13:31:49;;;;;;;4.70;1.93;;;18.40;62.60;;;;;;10389227;28;20276;-72
2022/09/30 13:36:50;;;;;;;3.30;1.80;;;18.40;62.10;;;;;;10396100;28;20233;-74
2022/09/30 13:42:16;;;;;;;5.40;1.90;;;18.50;63.70;;;;;;10387667;28;20273;-73
2022/09/30 13:47:43;;;;;;;4.03;1.70;;;18.30;63.50;;;;;;10396168;28;20218;-72
2022/09/30 13:52:50;;;;;;;2.93;1.70;;;18.30;65.00;;;;;;10363844;28;20365;-72
2022/09/30 13:58:03;;;;;;;2.30;1.50;;;18.30;63.70;;;;;;10387182;28;20214;-74
2022/09/30 14:03:40;;;;;;;2.73;1.30;;;18.20;62.70;;;;;;10391429;28;20286;-73
2022/09/30 14:08:59;;;;;;;4.30;1.70;;;18.10;62.80;;;;;;10395132;28;20222;-73
2022/09/30 14:14:35;;;;;;;2.63;1.70;;;18.00;64.00;;;;;;10404735;28;20222;-73
2022/09/30 14:19:51;;;;;;;3.67;1.60;;;18.00;64.70;;;;;;10396198;28;20219;-72
2022/09/30 14:24:56;;;;;;;6.93;1.93;;;17.90;64.60;;;;;;10392184;28;20224;-74
2022/09/30 14:30:13;;;;;;;2.27;1.80;;;17.90;65.10;;;;;;10393179;28;20220;-73
2022/09/30 14:35:19;;;;;;;5.27;2.00;;;17.80;64.80;;;;;;10396283;28;20899;-73
2022/09/30 14:40:26;;;;;;;3.73;1.87;;;17.70;66.20;;;;;;10389642;28;20250;-73
2022/09/30 14:45:30;;;;;;;3.53;1.97;;;17.70;66.90;;;;;;10388809;28;20273;-72
2022/09/30 14:50:45;;;;;;;2.77;1.70;;;17.60;66.80;;;;;;10393168;28;20230;-73
2022/09/30 14:55:48;;;;;;;4.07;2.00;;;17.50;66.10;;;;;;10392252;28;20220;-73
2022/09/30 15:01:14;;;;;;;3.27;1.90;;;17.40;66.80;;;;;;10385269;28;20693;-72
2022/09/30 15:06:26;;;;;;;3.73;1.90;;;17.40;68.50;;;;;;10381620;28;20850;-73
2022/09/30 15:11:28;;;;;;;4.80;2.27;;;17.30;67.70;;;;;;10387992;28;20761;-73
2022/09/30 15:16:31;;;;;;;7.47;2.30;;;17.20;69.00;;;;;;10389011;28;20227;-73
2022/09/30 15:21:31;;;;;;;2.47;1.90;;;17.20;69.50;;;;;;10387241;28;20328;-73
2022/09/30 15:26:35;;;;;;;3.17;1.80;;;17.10;69.00;;;;;;10380532;28;20227;-73
2022/09/30 15:31:46;;;;;;;5.57;1.67;;;17.00;69.90;;;;;;10386011;28;20594;-73
2022/09/30 15:36:54;;;;;;;2.23;1.60;;;16.80;71.50;;;;;;10391590;28;20232;-74
2022/09/30 15:41:55;;;;;;;4.77;1.60;;;16.70;72.60;;;;;;10391382;28;20212;-74
2022/09/30 15:47:03;;;;;;;3.00;1.73;;;16.60;73.40;;;;;;10383158;28;20220;-72
2022/09/30 15:52:22;;;;;;;2.13;1.40;;;16.50;73.00;;;;;;10389403;28;20236;-72
2022/09/30 15:57:44;;;;;;;2.17;1.60;;;16.40;73.80;;;;;;10386913;28;20208;-73
2022/09/30 16:02:48;;;;;;;6.33;2.20;;;16.20;75.10;;;;;;10390130;28;20304;-73
2022/09/30 16:07:48;;;;;;;3.40;1.70;;;16.10;76.80;;;;;;10392696;28;20692;-71
2022/09/30 16:12:49;;;;;;;1.97;1.50;;;16.00;77.20;;;;;;10393418;28;20233;-73
2022/09/30 16:17:49;;;;;;;2.13;1.50;;;15.90;77.50;;;;;;10407329;28;20278;-73
2022/09/30 16:22:54;;;;;;;2.93;1.70;;;15.80;77.20;;;;;;10382953;28;20221;-73
2022/09/30 16:27:58;;;;;;;6.23;1.57;;;15.70;77.80;;;;;;10391119;28;20235;-73
2022/09/30 16:33:03;;;;;;;2.47;1.63;;;15.50;78.50;;;;;;10398525;28;20229;-72
2022/09/30 16:38:06;;;;;;;2.80;1.73;;;15.40;79.60;;;;;;10384116;28;20213;-72
2022/09/30 16:43:10;;;;;;;3.03;1.80;;;15.20;81.00;;;;;;10379850;28;20227;-73
2022/09/30 16:48:15;;;;;;;1.50;1.40;;;15.00;82.50;;;;;;10387996;28;20327;-73
2022/09/30 16:53:19;;;;;;;4.40;1.60;;;14.80;84.40;;;;;;10381717;28;20261;-73
2022/09/30 16:58:19;;;;;;;4.00;1.70;;;14.70;86.80;;;;;;10385005;28;20279;-74
2022/09/30 17:03:21;;;;;;;2.87;1.80;;;14.50;88.70;;;;;;10389127;28;20714;-72
2022/09/30 17:08:22;;;;;;;3.50;2.07;;;14.20;90.80;;;;;;10388691;28;20238;-73
2022/09/30 17:13:23;;;;;;;3.47;2.37;;;14.00;92.80;;;;;;10380115;28;20236;-73
2022/09/30 17:18:24;;;;;;;2.83;2.10;;;13.90;95.50;;;;;;10387177;28;20285;-72
2022/09/30 17:23:24;;;;;;;2.87;2.40;;;13.80;98.70;;;;;;10380895;28;20226;-72
2022/09/30 17:28:28;;;;;;;2.90;2.50;;;13.60;99.90;;;;;;10385044;28;20610;-73
2022/09/30 17:33:33;;;;;;;5.43;2.40;;;13.40;99.90;;;;;;10386953;28;20229;-74
2022/09/30 17:38:34;;;;;;;3.70;2.40;;;13.30;99.90;;;;;;10387753;28;20586;-73
2022/09/30 17:43:35;;;;;;;3.60;2.60;;;13.10;99.90;;;;;;10395590;28;20232;-72
2022/09/30 17:48:36;;;;;;;4.33;2.30;;;13.00;99.90;;;;;;10393292;28;20226;-72
2022/09/30 17:53:37;;;;;;;4.10;2.33;;;12.80;99.90;;;;;;10387550;28;20718;-74
2022/09/30 17:58:38;;;;;;;3.03;2.43;;;12.80;99.90;;;;;;10393457;28;20216;-73
2022/09/30 18:03:39;;;;;;;5.97;3.13;;;12.90;99.90;;;;;;10396093;28;20228;-74
2022/09/30 18:08:40;;;;;;;5.10;3.10;;;12.90;99.90;;;;;;10393783;28;20221;-73
2022/09/30 18:13:41;;;;;;;5.53;3.20;;;12.90;99.90;;;;;;10406673;28;20228;-74
2022/09/30 18:18:41;;;;;;;6.53;3.90;;;12.90;99.90;;;;;;10388013;28;20903;-73
2022/09/30 18:23:42;;;;;;;7.47;4.07;;;12.70;99.90;;;;;;10395637;28;20209;-73
2022/09/30 18:28:43;;;;;;;6.80;3.70;;;12.50;99.90;;;;;;10395976;28;20224;-75
2022/09/30 18:33:43;;;;;;;8.50;5.00;;;12.40;99.90;;;;;;10401991;28;20619;-74
2022/09/30 18:38:44;;;;;;;9.90;6.20;;;12.30;99.90;;;;;;10385682;28;20225;-72
2022/09/30 18:43:45;;;;;;;11.57;9.60;;;12.30;99.90;;;;;;10391572;28;20231;-72
2022/09/30 18:48:49;;;;;;;6.30;5.63;;;12.20;99.90;;;;;;10385889;28;20217;-73
2022/09/30 18:53:58;;;;;;;6.10;3.73;;;12.30;99.90;;;;;;10383916;28;20225;-74
2022/09/30 18:59:00;;;;;;;7.53;4.50;;;12.30;99.90;;;;;;10393137;28;20225;-73
2022/09/30 19:04:03;;;;;;;4.87;4.00;;;12.40;99.90;;;;;;10384713;28;20229;-73
2022/09/30 19:09:05;;;;;;;6.40;4.30;;;12.40;99.90;;;;;;10388646;28;20221;-74
2022/09/30 19:14:06;;;;;;;5.83;3.70;;;12.40;99.90;;;;;;10384769;28;20229;-74
2022/09/30 19:19:09;;;;;;;8.47;3.60;;;12.40;99.90;;;;;;10390207;28;20228;-73
2022/09/30 19:24:12;;;;;;;4.77;3.53;;;12.40;99.90;;;;;;10384597;28;20320;-72
2022/09/30 19:29:13;;;;;;;5.77;3.67;;;12.30;99.90;;;;;;10387681;28;20259;-74
2022/09/30 19:34:15;;;;;;;4.97;3.33;;;12.20;99.90;;;;;;10386241;28;20719;-72
2022/09/30 19:39:15;;;;;;;4.40;3.90;;;12.20;99.90;;;;;;10388520;28;20286;-73
2022/09/30 19:44:22;;;;;;;4.00;3.40;;;12.00;99.90;;;;;;10392383;28;20279;-72
2022/09/30 19:49:23;;;;;;;5.13;3.47;;;11.90;99.90;;;;;;10389652;28;20212;-74
2022/09/30 19:54:27;;;;;;;4.87;3.67;;;11.90;99.90;;;;;;10383982;28;20335;-73
2022/09/30 19:59:28;;;;;;;5.23;3.77;;;11.80;99.90;;;;;;10392000;28;20213;-73
2022/09/30 20:04:28;;;;;;;9.67;4.33;;;11.70;99.90;;;;;;10390141;28;20228;-74
2022/09/30 20:09:29;;;;;;;4.97;4.10;;;11.60;99.90;;;;;;10387549;28;20278;-74
2022/09/30 20:20:33;;;;;;;6.70;3.90;;;11.40;99.90;;;;;;10391402;28;20220;-73
2022/09/30 20:25:10;;;;;;;10.03;4.23;;;11.30;99.90;;;;;;10406257;28;20216;-73
2022/09/30 20:30:10;;;;;;;5.90;3.90;;;11.20;99.90;;;;;;10390703;28;20668;-73
2022/09/30 20:35:12;;;;;;;6.57;4.90;;;11.20;99.90;;;;;;10389542;28;20175;-73
2022/09/30 20:40:12;;;;;;;7.73;5.17;;;11.10;99.90;;;;;;10399814;28;20185;-73
2022/09/30 20:45:13;;;;;;;8.77;5.97;;;11.00;99.90;;;;;;10383266;28;20633;-73
2022/09/30 20:50:33;;;;;;;5.90;5.17;;;11.00;99.90;;;;;;10388506;28;20683;-74
2022/09/30 20:55:40;;;;;;;8.97;6.27;;;10.90;99.90;;;;;;10390285;28;20237;-73
2022/09/30 21:00:41;;;;;;;9.63;6.47;;;10.90;99.90;;;;;;10382485;28;20237;-72
2022/09/30 21:05:51;;;;;;;10.90;6.50;;;10.90;99.90;;;;;;10386328;28;20229;-72
2022/09/30 21:10:51;;;;;;;13.17;7.07;;;10.90;99.90;;;;;;10380812;28;20703;-74
2022/09/30 21:16:23;;;;;;;10.53;7.23;;;10.80;99.90;;;;;;10396481;28;20227;-73
2022/09/30 21:21:25;;;;;;;9.43;7.17;;;10.80;99.90;;;;;;10392197;28;20288;-74
2022/09/30 21:26:26;;;;;;;8.37;6.73;;;10.70;99.90;;;;;;10385950;28;20258;-73
2022/09/30 21:31:27;;;;;;;9.60;7.00;;;10.70;99.90;;;;;;10392295;28;20256;-72
2022/09/30 21:36:28;;;;;;;10.33;6.30;;;10.70;99.90;;;;;;10396616;28;20693;-73
2022/09/30 21:41:29;;;;;;;9.43;7.30;;;10.60;99.90;;;;;;10393204;28;20224;-72
2022/09/30 21:46:31;;;;;;;9.97;6.80;;;10.60;99.90;;;;;;10384577;28;20223;-73
2022/09/30 21:51:33;;;;;;;10.93;6.40;;;10.60;99.90;;;;;;10387517;28;20229;-73
2022/09/30 21:56:34;;;;;;;11.17;6.83;;;10.60;99.90;;;;;;10396338;28;20225;-73
2022/09/30 22:01:36;;;;;;;7.87;6.33;;;10.50;99.90;;;;;;10392266;28;20229;-73
2022/09/30 22:06:36;;;;;;;9.90;6.17;;;10.50;99.90;;;;;;10398242;28;20935;-73
2022/09/30 22:11:37;;;;;;;10.60;6.30;;;10.50;99.90;;;;;;10395309;28;20232;-74
2022/09/30 22:16:38;;;;;;;8.17;6.30;;;10.40;99.90;;;;;;10389127;28;20227;-73
2022/09/30 22:21:38;;;;;;;9.27;5.87;;;10.40;99.90;;;;;;10394403;28;20228;-73
2022/09/30 22:26:40;;;;;;;6.97;5.33;;;10.40;99.90;;;;;;10404871;28;20221;-72
2022/09/30 22:31:40;;;;;;;7.40;5.40;;;10.30;99.90;;;;;;10399147;28;20314;-74
2022/09/30 22:42:03;;;;;;;7.93;6.30;;;10.30;99.90;;;;;;10394710;28;20228;-73
2022/09/30 22:47:07;;;;;;;10.50;6.17;;;10.30;99.90;;;;;;10392661;28;20220;-73
2022/09/30 22:52:08;;;;;;;9.77;6.87;;;10.30;99.90;;;;;;10395495;28;20229;-73
2022/09/30 22:57:10;;;;;;;8.13;7.33;;;10.30;99.90;;;;;;10388255;28;20224;-72
2022/09/30 23:02:12;;;;;;;9.10;7.50;;;10.30;99.90;;;;;;10389146;28;20236;-73
2022/09/30 23:07:13;;;;;;;9.17;7.77;;;10.30;99.90;;;;;;10386634;28;20224;-72
2022/09/30 23:12:17;;;;;;;9.07;7.63;;;10.30;99.90;;;;;;10389998;28;20233;-73
2022/09/30 23:17:17;;;;;;;9.50;7.47;;;10.30;99.90;;;;;;10388489;28;20291;-73
2022/09/30 23:22:18;;;;;;;11.20;7.47;;;10.40;99.90;;;;;;10390739;28;20306;-72
2022/09/30 23:27:19;;;;;;;9.10;7.10;;;10.50;99.90;;;;;;10384972;28;20358;-72
2022/09/30 23:32:19;;;;;;;11.30;7.03;;;10.50;99.90;;;;;;10389059;28;20316;-74
2022/09/30 23:37:20;;;;;;;7.27;6.43;;;10.50;99.90;;;;;;10387259;28;20221;-73
2022/09/30 23:42:21;;;;;;;7.83;7.00;;;10.40;99.90;;;;;;10386541;28;20224;-73
2022/09/30 23:47:21;;;;;;;8.53;7.67;;;10.40;99.90;;;;;;10388088;28;20242;-73
2022/09/30 23:52:22;;;;;;;9.03;7.33;;;10.30;99.90;;;;;;10387368;28;20282;-74
2022/09/30 23:57:22;;;;;;;10.10;8.20;;;10.30;99.90;;;;;;10397405;28;20250;-73
